Time;durP1;ratioP1;P1;durP2;ratioP2;P2;SDS_P1;SDS_P2;PMS_P1;PMS_P2;Temp;Humidity;BMP_temperature;BMP_pressure;BME280_temperature;BME280_humidity;BME280_pressure;Samples;Min_cycle;Max_cycle;Signal;HPM_P1;HPM_P2
2024/01/05 00:00:32;;;;;;;31.83;4.50;;;8.00;99.90;;;;;;5006828;28;20037;-60
2024/01/05 00:03:01;;;;;;;23.58;3.35;;;8.00;99.90;;;;;;5008097;28;20476;-60
2024/01/05 00:05:26;;;;;;;13.50;2.25;;;8.00;99.90;;;;;;5008867;28;20034;-61
2024/01/05 00:07:53;;;;;;;31.27;4.13;;;8.00;99.90;;;;;;5012495;28;20034;-61
2024/01/05 00:10:18;;;;;;;14.90;3.25;;;8.00;99.90;;;;;;5011751;28;20426;-60
2024/01/05 00:12:44;;;;;;;23.98;2.92;;;8.00;99.90;;;;;;4992345;28;20025;-62
2024/01/05 00:15:12;;;;;;;28.38;4.47;;;8.00;99.90;;;;;;5009866;28;20080;-61
2024/01/05 00:17:38;;;;;;;30.42;5.40;;;8.10;99.90;;;;;;5007011;28;20140;-62
2024/01/05 00:20:06;;;;;;;17.88;3.95;;;8.00;99.90;;;;;;5008499;28;20033;-62
2024/01/05 00:22:32;;;;;;;18.33;3.80;;;8.00;99.90;;;;;;5002761;28;20034;-61
2024/01/05 00:24:57;;;;;;;15.57;3.42;;;8.00;99.90;;;;;;5008837;28;20095;-62
2024/01/05 00:27:23;;;;;;;19.15;3.92;;;8.00;99.90;;;;;;5001859;28;20072;-61
2024/01/05 00:29:48;;;;;;;26.70;3.70;;;8.00;99.90;;;;;;5005190;28;20524;-62
2024/01/05 00:32:14;;;;;;;34.97;4.15;;;8.00;99.90;;;;;;5005223;28;20443;-62
2024/01/05 00:34:40;;;;;;;15.93;4.57;;;8.10;99.90;;;;;;5006237;28;20123;-61
2024/01/05 00:37:05;;;;;;;15.25;4.00;;;8.10;99.90;;;;;;5000010;28;20022;-58
2024/01/05 00:39:31;;;;;;;16.17;3.55;;;8.10;99.90;;;;;;5008815;28;20156;-61
2024/01/05 00:41:57;;;;;;;18.80;3.65;;;8.20;99.90;;;;;;5009987;28;20072;-63
2024/01/05 00:44:23;;;;;;;18.88;3.63;;;8.20;99.90;;;;;;5004674;28;20084;-62
2024/01/05 00:46:49;;;;;;;22.90;4.35;;;8.20;99.90;;;;;;5002429;28;20496;-60
2024/01/05 00:49:14;;;;;;;28.42;3.90;;;8.20;99.90;;;;;;5005494;28;20044;-62
2024/01/05 00:51:40;;;;;;;14.15;3.30;;;8.20;99.90;;;;;;5008650;28;20029;-61
2024/01/05 00:54:06;;;;;;;24.65;3.75;;;8.20;99.90;;;;;;5001935;28;20291;-61
2024/01/05 00:56:31;;;;;;;16.15;3.25;;;8.20;99.90;;;;;;5009499;28;20029;-62
2024/01/05 00:58:57;;;;;;;27.33;3.35;;;8.20;99.90;;;;;;5005394;28;20042;-60
2024/01/05 01:01:22;;;;;;;21.33;3.15;;;8.10;99.90;;;;;;5000789;28;20037;-61
2024/01/05 01:03:48;;;;;;;19.00;3.72;;;8.10;99.90;;;;;;4999802;28;20038;-61
2024/01/05 01:06:13;;;;;;;13.25;2.55;;;8.10;99.90;;;;;;5002095;28;20106;-61
2024/01/05 01:08:39;;;;;;;15.80;3.47;;;8.10;99.90;;;;;;5001717;28;20061;-62
2024/01/05 01:11:04;;;;;;;22.00;3.58;;;8.10;99.90;;;;;;5006881;28;20034;-59
2024/01/05 01:13:30;;;;;;;16.05;3.35;;;8.00;99.90;;;;;;5006328;28;20084;-61
2024/01/05 01:15:56;;;;;;;25.40;4.35;;;8.10;99.90;;;;;;5004341;28;20145;-60
2024/01/05 01:18:21;;;;;;;11.75;2.88;;;8.10;99.90;;;;;;4997955;28;20025;-60
2024/01/05 01:20:47;;;;;;;18.42;3.78;;;8.00;99.90;;;;;;5006720;28;20113;-60
2024/01/05 01:23:13;;;;;;;24.08;4.20;;;8.00;99.90;;;;;;5004699;28;20072;-60
2024/01/05 01:25:38;;;;;;;19.98;3.65;;;8.00;99.90;;;;;;5006089;28;20026;-59
2024/01/05 01:28:04;;;;;;;30.05;4.57;;;8.00;99.90;;;;;;5001833;28;20459;-59
2024/01/05 01:30:30;;;;;;;20.33;2.92;;;8.00;99.90;;;;;;5008133;28;20052;-59
2024/01/05 01:32:55;;;;;;;13.90;3.05;;;8.00;99.90;;;;;;5008052;28;20568;-62
2024/01/05 01:35:21;;;;;;;18.70;3.55;;;8.00;99.90;;;;;;5007365;28;20392;-60
2024/01/05 01:37:46;;;;;;;14.57;2.60;;;8.00;99.90;;;;;;5002759;28;20472;-60
2024/01/05 01:40:12;;;;;;;20.45;3.38;;;7.90;99.90;;;;;;5007493;28;20026;-59
2024/01/05 01:42:43;;;;;;;16.10;2.65;;;7.90;99.90;;;;;;5006976;28;20589;-61
2024/01/05 01:45:09;;;;;;;14.82;3.53;;;7.90;99.90;;;;;;5000260;28;20031;-60
2024/01/05 01:47:34;;;;;;;17.20;2.67;;;7.90;99.90;;;;;;5005297;28;20068;-61
2024/01/05 01:50:01;;;;;;;14.13;2.53;;;8.00;99.90;;;;;;5006118;28;20026;-59
2024/01/05 01:52:27;;;;;;;15.85;2.40;;;8.00;99.90;;;;;;5007284;28;20431;-58
2024/01/05 01:54:52;;;;;;;17.27;2.90;;;8.10;99.90;;;;;;5008829;28;20046;-59
2024/01/05 01:57:18;;;;;;;13.10;2.97;;;8.10;99.90;;;;;;5009364;28;20476;-58
2024/01/05 01:59:44;;;;;;;20.17;2.75;;;8.10;99.90;;;;;;4987685;28;20038;-58
2024/01/05 02:02:12;;;;;;;14.43;2.35;;;8.00;99.90;;;;;;5003671;28;20488;-61
2024/01/05 02:04:38;;;;;;;24.55;2.80;;;8.10;99.90;;;;;;5006859;28;20026;-57
2024/01/05 02:07:04;;;;;;;13.52;2.33;;;8.10;99.90;;;;;;5004026;28;20080;-59
2024/01/05 02:09:30;;;;;;;19.90;3.03;;;8.10;99.90;;;;;;5006337;28;20460;-61
2024/01/05 02:11:56;;;;;;;14.48;2.67;;;8.10;99.90;;;;;;5009668;28;20030;-58
2024/01/05 02:14:21;;;;;;;38.40;4.43;;;8.20;99.90;;;;;;5004701;28;20022;-61
2024/01/05 02:16:47;;;;;;;15.10;2.30;;;8.20;99.90;;;;;;5009229;28;20038;-60
2024/01/05 02:19:12;;;;;;;15.13;2.35;;;8.20;99.90;;;;;;5009996;28;20036;-60
2024/01/05 02:21:42;;;;;;;18.38;2.60;;;8.20;99.90;;;;;;5012007;28;20044;-63
2024/01/05 02:24:08;;;;;;;19.63;3.35;;;8.20;99.90;;;;;;5012597;28;20022;-60
2024/01/05 02:26:33;;;;;;;26.83;3.00;;;8.20;99.90;;;;;;5002644;28;20102;-60
2024/01/05 02:29:03;;;;;;;13.10;2.67;;;8.20;99.90;;;;;;5006164;28;20548;-62
2024/01/05 02:31:29;;;;;;;17.15;2.75;;;8.30;99.90;;;;;;5004407;28;20025;-61
2024/01/05 02:33:54;;;;;;;15.80;3.47;;;8.20;99.90;;;;;;5008487;28;20029;-61
2024/01/05 02:36:20;;;;;;;17.95;3.55;;;8.20;99.90;;;;;;5006465;28;20096;-62
2024/01/05 02:38:45;;;;;;;19.27;3.97;;;8.20;99.90;;;;;;5007038;28;20030;-62
2024/01/05 02:41:11;;;;;;;16.88;4.22;;;8.20;99.90;;;;;;5003073;28;20025;-62
2024/01/05 02:43:36;;;;;;;15.20;3.40;;;8.10;99.90;;;;;;5003930;28;20022;-60
2024/01/05 02:46:02;;;;;;;21.77;3.65;;;8.10;99.90;;;;;;4989884;28;20561;-57
2024/01/05 02:48:27;;;;;;;19.42;3.55;;;8.00;99.90;;;;;;5011102;28;20041;-61
2024/01/05 02:50:53;;;;;;;11.70;2.90;;;8.00;99.90;;;;;;5007159;28;20038;-61
2024/01/05 02:53:18;;;;;;;17.42;3.83;;;7.90;99.90;;;;;;5008695;28;20023;-60
2024/01/05 02:55:44;;;;;;;20.15;4.05;;;7.90;99.90;;;;;;5007075;28;20149;-61
2024/01/05 02:58:09;;;;;;;23.33;3.10;;;7.80;99.90;;;;;;5009370;28;20069;-62
2024/01/05 03:00:35;;;;;;;16.05;2.63;;;7.80;99.90;;;;;;4990562;28;20033;-59
2024/01/05 03:03:01;;;;;;;16.35;3.08;;;7.80;99.90;;;;;;4987927;28;20037;-63
2024/01/05 03:05:27;;;;;;;16.75;3.08;;;7.80;99.90;;;;;;4993211;28;20105;-63
2024/01/05 03:07:53;;;;;;;17.48;3.42;;;7.90;99.90;;;;;;5011936;28;20041;-61
2024/01/05 03:10:18;;;;;;;18.90;2.75;;;7.90;99.90;;;;;;5006924;28;20022;-62
2024/01/05 03:12:44;;;;;;;15.63;2.92;;;7.90;99.90;;;;;;5010958;28;20034;-60
2024/01/05 03:15:09;;;;;;;14.82;3.03;;;7.80;99.90;;;;;;5009114;28;20034;-61
2024/01/05 03:17:35;;;;;;;13.80;2.83;;;7.80;99.90;;;;;;5005146;28;20029;-60
2024/01/05 03:20:00;;;;;;;8.68;2.95;;;7.80;99.90;;;;;;5006736;28;20026;-61
2024/01/05 03:22:26;;;;;;;17.85;3.30;;;7.80;99.90;;;;;;5002998;28;20033;-59
2024/01/05 03:24:52;;;;;;;16.40;2.45;;;7.80;99.90;;;;;;5007435;28;20030;-62
2024/01/05 03:27:17;;;;;;;14.60;2.72;;;7.70;99.90;;;;;;5002603;28;20026;-62
2024/01/05 03:29:43;;;;;;;18.63;3.33;;;7.70;99.90;;;;;;5009479;28;20108;-61
2024/01/05 03:32:09;;;;;;;13.65;2.67;;;7.70;99.90;;;;;;5009441;28;20049;-64
2024/01/05 03:34:34;;;;;;;21.90;2.72;;;7.70;99.90;;;;;;5010746;28;20052;-62
2024/01/05 03:37:00;;;;;;;17.05;2.50;;;7.70;99.90;;;;;;5005249;28;20510;-63
2024/01/05 03:39:26;;;;;;;9.70;2.67;;;7.70;99.90;;;;;;4984172;28;20233;-62
2024/01/05 03:41:52;;;;;;;17.95;2.65;;;7.70;99.90;;;;;;5007750;28;20070;-62
2024/01/05 03:44:20;;;;;;;20.50;2.47;;;7.70;99.90;;;;;;5004595;28;20030;-61
2024/01/05 03:46:50;;;;;;;14.98;2.42;;;7.60;99.90;;;;;;4982489;28;20019;-61
2024/01/05 03:49:16;;;;;;;18.52;3.70;;;7.60;99.90;;;;;;5006233;28;20022;-62
2024/01/05 03:51:42;;;;;;;15.98;2.78;;;7.60;99.90;;;;;;5009719;28;20385;-61
2024/01/05 03:54:08;;;;;;;13.48;3.95;;;7.60;99.90;;;;;;5006833;28;20030;-61
2024/01/05 03:56:46;;;;;;;15.63;2.55;;;7.60;99.90;;;;;;5006458;28;20026;-62
2024/01/05 03:59:12;;;;;;;19.25;3.53;;;7.60;99.90;;;;;;5006837;28;20034;-63
2024/01/05 04:01:47;;;;;;;16.20;2.22;;;7.60;99.90;;;;;;5004358;28;20401;-63
2024/01/05 04:04:13;;;;;;;13.80;2.25;;;7.60;99.90;;;;;;4992524;28;20428;-63
2024/01/05 04:06:39;;;;;;;22.75;7.13;;;7.60;99.90;;;;;;5003779;28;20030;-62
2024/01/05 04:09:05;;;;;;;20.75;5.45;;;7.60;99.90;;;;;;5007055;28;20057;-62
2024/01/05 04:11:30;;;;;;;12.85;2.40;;;7.80;99.90;;;;;;5004504;28;20393;-63
2024/01/05 04:13:59;;;;;;;21.67;2.70;;;7.80;99.90;;;;;;5004056;28;20372;-63
2024/01/05 04:16:24;;;;;;;15.10;2.60;;;7.80;99.90;;;;;;5008024;28;20025;-62
2024/01/05 04:18:50;;;;;;;11.48;1.95;;;7.90;99.90;;;;;;5005062;28;20405;-62
2024/01/05 04:21:15;;;;;;;10.38;1.60;;;8.00;99.90;;;;;;5007995;28;20045;-62
2024/01/05 04:23:41;;;;;;;9.10;1.73;;;8.00;99.90;;;;;;5000919;28;20040;-59
2024/01/05 04:26:07;;;;;;;10.70;2.20;;;8.10;99.90;;;;;;5002430;28;20084;-60
2024/01/05 04:28:32;;;;;;;10.90;3.22;;;8.20;99.90;;;;;;4999063;28;20026;-62
2024/01/05 04:30:58;;;;;;;9.75;1.70;;;8.30;99.90;;;;;;5005063;28;20034;-60
2024/01/05 04:33:23;;;;;;;8.55;2.30;;;8.30;99.90;;;;;;5011341;28;20375;-63
2024/01/05 04:35:49;;;;;;;16.48;1.88;;;8.40;99.90;;;;;;5002198;28;20484;-62
2024/01/05 04:38:14;;;;;;;7.15;1.80;;;8.50;99.90;;;;;;5004595;28;20022;-63
2024/01/05 04:40:40;;;;;;;12.10;2.85;;;8.50;99.90;;;;;;5009933;28;20075;-63
2024/01/05 04:43:05;;;;;;;9.88;2.15;;;8.60;99.90;;;;;;4984045;28;20040;-63
2024/01/05 04:45:31;;;;;;;10.10;1.98;;;8.60;99.90;;;;;;5003296;28;20034;-61
2024/01/05 04:47:57;;;;;;;8.35;2.30;;;8.70;99.90;;;;;;5003048;28;20450;-62
2024/01/05 04:50:22;;;;;;;9.43;3.00;;;8.70;99.90;;;;;;5002828;28;20029;-60
2024/01/05 04:52:48;;;;;;;4.53;1.58;;;8.70;99.90;;;;;;4986865;28;20042;-61
2024/01/05 04:55:15;;;;;;;13.80;1.95;;;8.60;99.90;;;;;;5006616;28;20022;-61
2024/01/05 04:57:41;;;;;;;12.85;1.90;;;8.70;99.90;;;;;;4999127;28;20029;-61
2024/01/05 05:00:08;;;;;;;5.05;1.60;;;8.80;99.90;;;;;;5006520;28;20037;-61
2024/01/05 05:02:34;;;;;;;8.80;1.88;;;8.80;99.90;;;;;;5002387;28;20044;-61
2024/01/05 05:04:59;;;;;;;15.80;2.20;;;8.80;99.90;;;;;;5005152;28;20433;-60
2024/01/05 05:07:25;;;;;;;6.63;1.40;;;8.70;99.90;;;;;;5000729;28;20458;-61
2024/01/05 05:09:50;;;;;;;10.38;2.15;;;8.70;99.90;;;;;;5005558;28;20029;-60
2024/01/05 05:12:16;;;;;;;10.07;1.60;;;8.70;99.90;;;;;;5001815;28;20026;-60
2024/01/05 05:14:42;;;;;;;11.52;2.13;;;8.60;99.90;;;;;;5009209;28;20049;-60
2024/01/05 05:17:08;;;;;;;14.23;2.33;;;8.60;99.90;;;;;;4999675;28;20369;-61
2024/01/05 05:19:33;;;;;;;10.85;1.77;;;8.60;99.90;;;;;;5003174;28;20069;-61
2024/01/05 05:21:59;;;;;;;8.57;1.88;;;8.70;99.90;;;;;;5001980;28;20018;-61
2024/01/05 05:24:24;;;;;;;6.93;1.55;;;8.70;99.90;;;;;;5004839;28;20022;-61
2024/01/05 05:26:50;;;;;;;7.78;2.25;;;8.70;99.90;;;;;;5003950;28;20033;-62
2024/01/05 05:29:16;;;;;;;11.45;1.85;;;8.70;99.90;;;;;;5005169;28;20036;-61
2024/01/05 05:31:41;;;;;;;5.78;1.85;;;8.80;99.90;;;;;;5007930;28;20396;-60
2024/01/05 05:34:07;;;;;;;11.23;1.88;;;8.80;99.90;;;;;;5002023;28;20121;-60
2024/01/05 05:36:32;;;;;;;9.88;1.77;;;8.80;99.90;;;;;;5002138;28;20022;-60
2024/01/05 05:38:58;;;;;;;9.38;1.73;;;8.80;99.90;;;;;;5004191;28;20022;-61
2024/01/05 05:41:23;;;;;;;10.93;2.10;;;8.90;99.90;;;;;;5008021;28;20083;-62
2024/01/05 05:43:49;;;;;;;8.25;2.03;;;8.90;99.90;;;;;;5004756;28;20052;-61
2024/01/05 05:46:14;;;;;;;8.55;2.20;;;8.90;99.90;;;;;;5007229;28;20113;-60
2024/01/05 05:48:40;;;;;;;12.88;2.38;;;9.00;99.90;;;;;;4988828;28;20488;-60
2024/01/05 05:51:06;;;;;;;16.45;2.28;;;9.10;99.90;;;;;;5009266;28;20038;-60
2024/01/05 05:53:32;;;;;;;10.27;1.60;;;9.10;99.90;;;;;;4991972;28;20014;-61
2024/01/05 05:55:57;;;;;;;6.07;1.88;;;9.10;99.90;;;;;;5009998;28;20022;-61
2024/01/05 05:58:23;;;;;;;10.65;2.00;;;9.10;99.90;;;;;;5005460;28;20041;-59
2024/01/05 06:00:49;;;;;;;10.15;1.42;;;9.20;99.90;;;;;;4989608;28;20030;-62
2024/01/05 06:03:14;;;;;;;8.85;2.40;;;9.20;99.90;;;;;;5011602;28;20104;-60
2024/01/05 06:05:40;;;;;;;11.40;1.83;;;9.20;99.90;;;;;;5012526;28;20038;-62
2024/01/05 06:08:05;;;;;;;11.43;2.30;;;9.10;99.90;;;;;;5005927;28;20022;-60
2024/01/05 06:10:31;;;;;;;14.20;2.45;;;9.10;99.90;;;;;;5011477;28;20092;-60
2024/01/05 06:12:57;;;;;;;7.43;1.30;;;9.10;99.90;;;;;;5013267;28;20030;-61
2024/01/05 06:15:22;;;;;;;12.55;1.52;;;9.00;99.90;;;;;;5008588;28;20393;-61
2024/01/05 06:17:48;;;;;;;12.85;1.73;;;9.00;99.90;;;;;;5010855;28;20038;-61
2024/01/05 06:20:13;;;;;;;17.83;3.25;;;9.00;99.90;;;;;;5005212;28;20109;-63
2024/01/05 06:22:39;;;;;;;9.80;1.70;;;9.00;99.90;;;;;;5010458;28;20038;-62
2024/01/05 06:25:05;;;;;;;10.07;1.80;;;8.90;99.90;;;;;;5008308;28;20038;-62
2024/01/05 06:27:30;;;;;;;7.40;2.22;;;8.90;99.90;;;;;;5005487;28;20127;-62
2024/01/05 06:29:56;;;;;;;17.13;2.13;;;8.80;99.90;;;;;;5005094;28;20036;-62
2024/01/05 06:32:22;;;;;;;9.23;2.08;;;8.70;99.90;;;;;;5006047;28;20034;-58
2024/01/05 06:34:47;;;;;;;9.20;2.20;;;8.70;99.90;;;;;;5005884;28;20080;-61
2024/01/05 06:37:13;;;;;;;5.03;1.42;;;8.70;99.90;;;;;;5003227;28;20483;-60
2024/01/05 06:39:38;;;;;;;23.95;2.10;;;8.60;99.90;;;;;;5004768;28;20536;-62
2024/01/05 06:42:04;;;;;;;7.85;1.77;;;8.60;99.90;;;;;;5004037;28;20029;-63
2024/01/05 06:44:29;;;;;;;10.45;2.38;;;8.60;99.90;;;;;;5012184;28;20026;-63
2024/01/05 06:46:55;;;;;;;8.55;2.28;;;8.50;99.90;;;;;;5002936;28;20049;-62
2024/01/05 06:49:20;;;;;;;8.52;1.88;;;8.60;99.90;;;;;;5011157;28;20026;-61
2024/01/05 06:51:46;;;;;;;10.07;1.85;;;8.60;99.90;;;;;;5004616;28;20041;-61
2024/01/05 06:54:13;;;;;;;19.83;2.13;;;8.60;99.90;;;;;;5004651;28;20492;-61
2024/01/05 06:56:42;;;;;;;10.65;2.00;;;8.60;99.90;;;;;;5005575;28;20034;-61
2024/01/05 06:59:08;;;;;;;9.52;2.33;;;8.60;99.90;;;;;;5011073;28;20025;-59
2024/01/05 07:01:33;;;;;;;7.35;1.50;;;8.50;99.90;;;;;;5007048;28;20026;-62
2024/01/05 07:03:59;;;;;;;13.05;1.48;;;8.50;99.90;;;;;;5010286;28;20030;-62
2024/01/05 07:06:24;;;;;;;6.85;1.75;;;8.60;99.90;;;;;;5003596;28;20037;-61
2024/01/05 07:08:50;;;;;;;6.88;1.77;;;8.60;99.90;;;;;;5006123;28;20034;-61
2024/01/05 07:11:22;;;;;;;13.00;1.83;;;8.60;99.90;;;;;;5008475;28;20026;-62
2024/01/05 07:13:48;;;;;;;9.85;1.60;;;8.60;99.90;;;;;;5006411;28;20076;-61
2024/01/05 07:16:21;;;;;;;10.18;2.47;;;8.60;99.90;;;;;;5006508;28;20026;-59
2024/01/05 07:18:47;;;;;;;10.48;1.67;;;8.60;99.90;;;;;;5001663;28;20105;-60
2024/01/05 07:21:14;;;;;;;4.22;1.40;;;8.50;99.90;;;;;;5005839;28;20061;-59
2024/01/05 07:23:40;;;;;;;12.68;2.35;;;8.50;99.90;;;;;;5004251;28;20122;-60
2024/01/05 07:26:05;;;;;;;8.77;1.63;;;8.40;99.90;;;;;;5005492;28;20101;-60
2024/01/05 07:28:31;;;;;;;14.15;2.28;;;8.40;99.90;;;;;;5009618;28;20066;-61
2024/01/05 07:30:56;;;;;;;9.20;1.35;;;8.30;99.90;;;;;;5010796;28;20030;-59
2024/01/05 07:33:22;;;;;;;6.25;1.35;;;8.30;99.90;;;;;;5001313;28;20018;-61
2024/01/05 07:35:48;;;;;;;8.90;1.65;;;8.30;99.90;;;;;;5011598;28;20065;-60
2024/01/05 07:38:14;;;;;;;13.25;1.50;;;8.30;99.90;;;;;;5008833;28;20045;-61
2024/01/05 07:40:40;;;;;;;8.63;1.40;;;8.30;99.90;;;;;;5011824;28;20101;-58
2024/01/05 07:43:05;;;;;;;6.22;1.40;;;8.20;99.90;;;;;;5006283;28;20112;-60
2024/01/05 07:45:31;;;;;;;9.70;1.85;;;8.10;99.90;;;;;;5003871;28;20576;-63
2024/01/05 07:47:58;;;;;;;6.50;1.42;;;8.20;99.90;;;;;;5010206;28;20033;-60
2024/01/05 07:50:24;;;;;;;5.43;1.17;;;8.20;99.90;;;;;;5008082;28;20468;-62
2024/01/05 07:52:49;;;;;;;6.65;1.45;;;8.20;99.90;;;;;;5002148;28;20512;-62
2024/01/05 07:55:15;;;;;;;6.50;1.40;;;8.20;99.90;;;;;;5005217;28;20026;-56
2024/01/05 07:57:41;;;;;;;15.55;3.17;;;8.20;99.90;;;;;;5006922;28;20488;-57
2024/01/05 08:00:07;;;;;;;5.20;1.38;;;8.20;99.90;;;;;;5006977;28;20044;-56
2024/01/05 08:02:33;;;;;;;7.43;1.52;;;8.30;99.90;;;;;;5004584;28;20028;-55
2024/01/05 08:04:58;;;;;;;6.40;1.23;;;8.40;99.90;;;;;;5006711;28;20030;-55
2024/01/05 08:07:24;;;;;;;5.63;1.48;;;8.40;99.90;;;;;;5003040;28;20109;-57
2024/01/05 08:09:53;;;;;;;10.35;1.20;;;8.50;99.90;;;;;;5003313;28;20179;-53
2024/01/05 08:12:21;;;;;;;7.85;1.30;;;8.40;99.90;;;;;;5007480;28;20158;-54
2024/01/05 08:14:47;;;;;;;8.52;1.60;;;8.60;99.90;;;;;;5010363;28;20100;-58
2024/01/05 08:17:13;;;;;;;9.10;1.67;;;8.60;99.90;;;;;;5006517;28;20480;-56
2024/01/05 08:19:39;;;;;;;3.47;1.17;;;8.60;99.90;;;;;;5004151;28;20033;-57
2024/01/05 08:22:05;;;;;;;5.50;1.20;;;8.60;99.90;;;;;;5001368;28;20026;-56
2024/01/05 08:24:30;;;;;;;3.30;0.98;;;8.70;99.90;;;;;;4982209;28;20018;-54
2024/01/05 08:26:56;;;;;;;7.80;1.40;;;8.80;99.90;;;;;;5002493;28;20046;-55
2024/01/05 08:29:22;;;;;;;7.13;1.45;;;8.80;99.90;;;;;;5002240;28;20030;-54
2024/01/05 08:31:49;;;;;;;6.95;0.90;;;9.00;99.90;;;;;;4987343;28;20026;-53
2024/01/05 08:34:15;;;;;;;6.68;1.00;;;9.00;99.90;;;;;;4984911;28;20435;-54
2024/01/05 08:36:40;;;;;;;1.05;0.57;;;9.00;99.90;;;;;;5008200;28;20032;-55
2024/01/05 08:39:06;;;;;;;3.75;0.77;;;9.00;99.90;;;;;;5009016;28;20030;-54
2024/01/05 08:41:32;;;;;;;9.13;1.13;;;9.10;99.90;;;;;;5008167;28;20044;-59
2024/01/05 08:43:58;;;;;;;3.58;0.80;;;9.10;99.90;;;;;;5008689;28;20476;-58
2024/01/05 08:46:26;;;;;;;2.67;0.75;;;9.10;99.90;;;;;;4987990;28;20055;-58
2024/01/05 08:48:51;;;;;;;0.85;0.50;;;9.10;99.90;;;;;;5008648;28;20372;-57
2024/01/05 08:51:17;;;;;;;3.03;0.60;;;9.10;99.90;;;;;;5011041;28;20038;-57
2024/01/05 08:53:42;;;;;;;5.07;0.60;;;9.20;99.90;;;;;;5011975;28;20046;-58
2024/01/05 08:56:08;;;;;;;1.88;0.63;;;9.10;99.90;;;;;;5014645;28;20026;-55
2024/01/05 08:58:34;;;;;;;3.13;0.77;;;9.20;99.90;;;;;;4988241;28;20046;-57
2024/01/05 09:01:00;;;;;;;1.73;0.73;;;9.20;99.90;;;;;;5004516;28;20519;-54
2024/01/05 09:03:25;;;;;;;2.70;0.50;;;9.30;99.90;;;;;;5000175;28;20084;-56
2024/01/05 09:05:51;;;;;;;0.77;0.50;;;9.20;99.90;;;;;;5004681;28;20038;-56
2024/01/05 09:08:18;;;;;;;2.00;0.40;;;9.30;99.90;;;;;;4996762;28;20038;-54
2024/01/05 09:10:44;;;;;;;0.60;0.47;;;9.30;99.90;;;;;;5000863;28;20118;-52
2024/01/05 09:13:09;;;;;;;1.70;0.40;;;9.30;99.90;;;;;;5000849;28;20125;-57
2024/01/05 09:15:35;;;;;;;1.27;0.40;;;9.30;99.90;;;;;;5005057;28;20479;-54
2024/01/05 09:18:02;;;;;;;0.85;0.35;;;9.30;99.90;;;;;;5004261;28;20090;-57
2024/01/05 09:20:28;;;;;;;3.13;0.40;;;9.40;99.90;;;;;;5001970;28;20061;-57
2024/01/05 09:22:53;;;;;;;2.35;0.20;;;9.40;99.90;;;;;;5004751;28;20053;-55
2024/01/05 09:25:19;;;;;;;2.30;0.50;;;9.40;99.90;;;;;;5005013;28;20044;-56
2024/01/05 09:27:44;;;;;;;1.35;0.50;;;9.40;99.90;;;;;;5001483;28;20441;-54
2024/01/05 09:30:10;;;;;;;1.42;0.40;;;9.40;99.90;;;;;;5003283;28;20058;-56
2024/01/05 09:32:36;;;;;;;2.53;0.40;;;9.40;99.90;;;;;;5002062;28;20113;-54
2024/01/05 09:35:02;;;;;;;2.95;0.45;;;9.50;99.90;;;;;;5005830;28;20296;-54
2024/01/05 09:37:27;;;;;;;1.50;0.60;;;9.40;99.90;;;;;;5004967;28;20472;-56
2024/01/05 09:39:53;;;;;;;0.32;0.30;;;9.50;99.90;;;;;;5007703;28;20038;-54
2024/01/05 09:42:19;;;;;;;2.72;0.30;;;9.60;99.90;;;;;;5003472;28;20026;-57
2024/01/05 09:44:46;;;;;;;1.10;0.30;;;9.60;99.90;;;;;;5008330;28;20116;-57
2024/01/05 09:47:13;;;;;;;0.47;0.35;;;9.70;99.90;;;;;;4998754;28;20083;-53
2024/01/05 09:49:44;;;;;;;3.42;0.40;;;9.70;99.90;;;;;;4998801;28;20040;-56
2024/01/05 09:52:12;;;;;;;0.45;0.20;;;9.70;99.90;;;;;;4996816;28;20574;-54
2024/01/05 09:54:38;;;;;;;0.52;0.30;;;9.80;99.90;;;;;;5001037;28;20381;-57
2024/01/05 09:57:05;;;;;;;3.15;0.35;;;9.90;99.90;;;;;;4998498;28;20041;-57
2024/01/05 09:59:31;;;;;;;0.50;0.30;;;10.00;99.90;;;;;;5000553;28;20451;-57
2024/01/05 10:02:00;;;;;;;2.03;0.60;;;10.10;99.90;;;;;;4996534;28;20400;-56
2024/01/05 10:04:26;;;;;;;1.42;0.30;;;10.00;99.90;;;;;;4975922;28;20030;-57
2024/01/05 10:07:00;;;;;;;2.67;0.30;;;10.10;99.90;;;;;;4998338;28;20026;-55
2024/01/05 10:09:27;;;;;;;2.42;0.40;;;10.10;99.90;;;;;;4999103;28;20041;-56
2024/01/05 10:11:52;;;;;;;1.40;0.40;;;10.00;99.90;;;;;;4999193;28;20041;-57
2024/01/05 10:14:26;;;;;;;1.60;0.35;;;10.00;99.90;;;;;;4994017;28;20026;-57
2024/01/05 10:17:07;;;;;;;3.03;0.50;;;10.00;99.90;;;;;;4998303;28;20484;-55
2024/01/05 10:19:33;;;;;;;3.60;0.70;;;10.10;99.90;;;;;;4998454;28;20096;-57
2024/01/05 10:22:08;;;;;;;6.57;0.38;;;10.10;99.90;;;;;;4997160;28;20084;-56
2024/01/05 10:24:34;;;;;;;1.30;0.30;;;10.10;99.90;;;;;;5000622;28;20030;-54
2024/01/05 10:27:13;;;;;;;3.58;0.40;;;10.10;99.90;;;;;;5001949;28;20385;-59
2024/01/05 10:29:43;;;;;;;2.15;0.45;;;10.10;99.90;;;;;;4999375;28;20530;-55
2024/01/05 10:32:18;;;;;;;0.73;0.50;;;10.20;99.90;;;;;;5002550;28;20922;-55
2024/01/05 10:34:46;;;;;;;0.82;0.30;;;10.10;99.90;;;;;;5000220;28;20084;-58
2024/01/05 10:37:12;;;;;;;3.47;0.40;;;10.30;99.90;;;;;;4989553;28;20362;-55
2024/01/05 10:39:38;;;;;;;2.00;0.50;;;10.30;99.90;;;;;;5002764;28;20391;-56
2024/01/05 10:42:28;;;;;;;7.65;0.38;;;10.30;99.90;;;;;;5002445;28;20029;-56
2024/01/05 10:44:56;;;;;;;0.90;0.30;;;10.10;99.90;;;;;;5003872;28;20030;-53
2024/01/05 10:47:26;;;;;;;1.08;0.40;;;10.10;99.90;;;;;;5002322;28;20049;-60
2024/01/05 10:49:55;;;;;;;4.38;0.60;;;10.10;99.90;;;;;;4998150;28;20513;-54
2024/01/05 10:52:30;;;;;;;1.98;0.38;;;10.10;99.90;;;;;;4999349;28;20527;-56
2024/01/05 10:55:02;;;;;;;0.95;0.47;;;10.00;99.90;;;;;;4998434;28;20440;-57
2024/01/05 10:57:29;;;;;;;2.50;0.38;;;10.00;99.90;;;;;;5003502;28;20038;-55
2024/01/05 10:59:56;;;;;;;1.27;0.60;;;10.00;99.90;;;;;;5001266;28;20038;-56
2024/01/05 11:02:28;;;;;;;0.55;0.40;;;10.00;99.90;;;;;;4998968;28;20132;-55
2024/01/05 11:05:06;;;;;;;2.85;0.47;;;10.00;99.90;;;;;;5004272;28;20431;-58
2024/01/05 11:07:34;;;;;;;1.58;0.47;;;10.00;99.90;;;;;;5002846;28;20023;-55
2024/01/05 11:10:18;;;;;;;2.22;0.50;;;10.00;99.90;;;;;;4999612;28;20037;-58
2024/01/05 11:13:02;;;;;;;1.23;0.40;;;9.90;99.90;;;;;;5000893;28;20116;-55
2024/01/05 11:15:51;;;;;;;3.20;0.68;;;9.90;99.90;;;;;;5003447;28;20072;-58
2024/01/05 11:18:23;;;;;;;0.80;0.40;;;9.80;99.90;;;;;;4980125;28;20026;-55
2024/01/05 11:21:11;;;;;;;0.73;0.30;;;9.90;99.90;;;;;;4999161;28;20038;-58
2024/01/05 11:23:40;;;;;;;1.08;0.40;;;9.90;99.90;;;;;;5003947;28;20030;-55
2024/01/05 11:26:06;;;;;;;0.80;0.35;;;9.90;99.90;;;;;;4997087;28;20049;-58
2024/01/05 11:28:33;;;;;;;2.20;0.60;;;10.00;99.90;;;;;;4998332;28;20053;-57
2024/01/05 11:30:59;;;;;;;1.60;0.50;;;10.00;99.90;;;;;;5001793;28;20030;-55
2024/01/05 11:33:44;;;;;;;1.05;0.50;;;10.00;99.90;;;;;;5003873;28;20026;-58
2024/01/05 11:36:10;;;;;;;1.48;0.52;;;10.10;99.90;;;;;;4997871;28;20034;-57
2024/01/05 11:38:44;;;;;;;1.83;0.40;;;10.00;99.90;;;;;;4998060;28;20038;-56
2024/01/05 11:41:17;;;;;;;1.58;0.50;;;9.90;99.90;;;;;;5000387;28;20369;-57
2024/01/05 11:43:43;;;;;;;8.05;0.47;;;9.90;99.90;;;;;;4999800;28;20045;-57
2024/01/05 11:46:08;;;;;;;6.88;1.10;;;9.90;99.90;;;;;;5001218;28;20354;-58
2024/01/05 11:48:34;;;;;;;5.25;2.30;;;10.00;99.90;;;;;;5001978;28;20049;-58
2024/01/05 11:51:02;;;;;;;1.83;0.50;;;10.00;99.90;;;;;;5002974;28;20022;-55
2024/01/05 11:53:28;;;;;;;2.95;0.60;;;10.10;99.90;;;;;;5004481;28;20096;-56
2024/01/05 11:55:56;;;;;;;2.38;0.68;;;10.00;99.90;;;;;;5006017;28;20029;-56
2024/01/05 11:58:35;;;;;;;1.60;0.40;;;10.10;99.90;;;;;;5003024;28;20392;-57
2024/01/05 12:01:02;;;;;;;2.65;0.50;;;10.20;99.90;;;;;;5001682;28;20034;-58
2024/01/05 12:03:28;;;;;;;2.55;0.50;;;10.30;99.90;;;;;;5005557;28;20617;-57
2024/01/05 12:05:55;;;;;;;2.42;0.70;;;10.30;99.90;;;;;;5002489;28;20065;-57
2024/01/05 12:08:23;;;;;;;3.30;0.80;;;10.50;99.90;;;;;;5006127;28;20033;-55
2024/01/05 12:10:54;;;;;;;1.50;0.63;;;10.60;99.90;;;;;;5003094;28;20506;-55
2024/01/05 12:13:27;;;;;;;3.97;0.68;;;10.50;99.90;;;;;;5002354;28;20045;-57
2024/01/05 12:15:53;;;;;;;1.70;0.70;;;10.50;99.90;;;;;;5003726;28;20029;-58
2024/01/05 12:18:25;;;;;;;4.03;0.75;;;10.40;99.90;;;;;;5004036;28;20033;-56
2024/01/05 12:20:54;;;;;;;3.45;0.70;;;10.50;99.90;;;;;;5008602;28;20034;-56
2024/01/05 12:23:20;;;;;;;1.25;0.57;;;10.50;99.90;;;;;;4986926;28;20514;-57
2024/01/05 12:26:03;;;;;;;3.83;0.40;;;10.40;99.90;;;;;;5007072;28;20112;-57
2024/01/05 12:28:34;;;;;;;6.90;1.17;;;10.40;99.90;;;;;;4989956;28;20022;-58
2024/01/05 12:31:01;;;;;;;4.15;0.60;;;10.40;99.90;;;;;;5004925;28;20022;-56
2024/01/05 12:33:27;;;;;;;3.45;0.60;;;10.40;99.90;;;;;;5000612;28;20022;-55
2024/01/05 12:35:53;;;;;;;1.60;0.63;;;10.60;99.90;;;;;;5006534;28;20120;-55
2024/01/05 12:38:28;;;;;;;5.43;0.75;;;10.60;99.90;;;;;;5003819;28;20105;-56
2024/01/05 12:41:18;;;;;;;1.67;0.50;;;10.70;99.90;;;;;;5000983;28;20034;-54
2024/01/05 12:43:49;;;;;;;2.28;0.60;;;10.80;99.90;;;;;;4998502;28;20088;-58
2024/01/05 12:46:15;;;;;;;2.05;0.70;;;11.10;99.90;;;;;;4999518;28;20049;-56
2024/01/05 12:48:41;;;;;;;1.33;0.40;;;11.40;99.90;;;;;;4998862;28;20812;-57